createdAt,value
2023-05-02T00:01:10.327Z,100.00
2023-05-02T00:03:39.871Z,100.00
2023-05-02T00:06:09.247Z,100.00
2023-05-02T00:08:35.822Z,100.00
2023-05-02T00:11:02.194Z,100.00
2023-05-02T00:13:29.693Z,100.00
2023-05-02T00:15:56.025Z,100.00
2023-05-02T00:18:24.047Z,100.00
2023-05-02T00:20:59.606Z,100.00
2023-05-02T00:23:26.055Z,100.00
2023-05-02T00:25:52.393Z,100.00
2023-05-02T00:28:18.878Z,100.00
2023-05-02T00:30:46.434Z,100.00
2023-05-02T00:36:01.532Z,100.00
2023-05-02T00:38:31.395Z,100.00
2023-05-02T00:41:00.551Z,100.00
2023-05-02T00:43:32.125Z,100.00
2023-05-02T00:45:58.711Z,100.00
2023-05-02T00:48:33.318Z,100.00
2023-05-02T00:51:06.304Z,100.00
2023-05-02T00:53:32.673Z,100.00
2023-05-02T00:55:59.190Z,100.00
2023-05-02T00:58:26.495Z,100.00
2023-05-02T01:01:30.513Z,100.00
2023-05-02T01:04:07.216Z,100.00
2023-05-02T01:06:53.003Z,100.00
2023-05-02T01:09:27.217Z,100.00
2023-05-02T01:12:10.280Z,100.00
2023-05-02T01:14:44.834Z,100.00
2023-05-02T01:17:14.339Z,100.00
2023-05-02T01:19:52.440Z,100.00
2023-05-02T01:22:20.576Z,100.00
2023-05-02T01:24:58.523Z,100.00
2023-05-02T01:27:36.994Z,100.00
2023-05-02T01:33:02.104Z,100.00
2023-05-02T01:35:37.823Z,100.00
2023-05-02T01:38:08.099Z,100.00
2023-05-02T01:40:39.274Z,100.00
2023-05-02T01:43:09.489Z,100.00
2023-05-02T01:45:50.837Z,100.00
2023-05-02T01:48:21.806Z,100.00
2023-05-02T01:50:52.103Z,100.00
2023-05-02T01:53:21.398Z,100.00
2023-05-02T01:55:52.158Z,100.00
2023-05-02T01:58:19.618Z,100.00
2023-05-02T02:00:51.910Z,100.00
2023-05-02T02:03:24.090Z,100.00
2023-05-02T02:06:01.434Z,100.00
2023-05-02T02:08:28.202Z,100.00
2023-05-02T02:11:08.564Z,100.00
2023-05-02T02:13:43.034Z,100.00
2023-05-02T02:16:16.672Z,100.00
2023-05-02T02:18:47.726Z,100.00
2023-05-02T02:21:22.522Z,100.00
2023-05-02T02:23:56.017Z,100.00
2023-05-02T02:26:31.482Z,100.00
2023-05-02T02:28:58.084Z,100.00
2023-05-02T02:31:32.453Z,100.00
2023-05-02T02:33:59.569Z,100.00
2023-05-02T02:36:46.096Z,100.00
2023-05-02T02:39:31.153Z,99.68
2023-05-02T02:42:23.346Z,97.58
2023-05-02T02:45:44.094Z,97.64
2023-05-02T02:48:24.647Z,96.26
2023-05-02T02:51:09.965Z,96.27
2023-05-02T02:53:47.126Z,96.10
2023-05-02T02:56:28.419Z,96.06
2023-05-02T02:59:16.124Z,95.80
2023-05-02T03:01:53.275Z,95.29
2023-05-02T03:04:25.461Z,94.97
2023-05-02T03:06:55.278Z,94.27
2023-05-02T03:09:26.064Z,94.08
2023-05-02T03:11:52.440Z,94.21
2023-05-02T03:14:18.955Z,94.74
2023-05-02T03:16:45.580Z,94.36
2023-05-02T03:19:21.384Z,94.45
2023-05-02T03:21:47.947Z,94.70
2023-05-02T03:24:22.704Z,95.17
2023-05-02T03:26:49.135Z,95.62
2023-05-02T03:29:21.928Z,95.62
2023-05-02T03:31:48.334Z,95.70
2023-05-02T03:34:14.799Z,96.23
2023-05-02T03:36:44.176Z,96.41
2023-05-02T03:39:13.305Z,96.65
2023-05-02T03:41:39.806Z,96.39
2023-05-02T03:44:09.246Z,96.66
2023-05-02T03:46:38.492Z,96.14
2023-05-02T03:49:05.162Z,96.19
2023-05-02T03:51:33.987Z,96.14
2023-05-02T03:54:03.414Z,96.95
2023-05-02T03:59:17.321Z,99.03
2023-05-02T04:01:50.355Z,98.98
2023-05-02T04:04:19.852Z,99.88
2023-05-02T04:06:49.477Z,99.33
2023-05-02T04:09:18.510Z,97.88
2023-05-02T04:11:49.769Z,98.11
2023-05-02T04:14:16.099Z,97.89
2023-05-02T04:16:56.977Z,97.52
2023-05-02T04:19:25.587Z,96.21
2023-05-02T04:21:52.258Z,95.38
2023-05-02T04:24:18.966Z,94.13
2023-05-02T04:26:49.826Z,93.50
2023-05-02T04:29:16.627Z,93.75
2023-05-02T04:31:43.188Z,92.33
2023-05-02T04:34:09.622Z,91.91
2023-05-02T04:36:45.568Z,91.40
2023-05-02T04:39:11.972Z,91.50
2023-05-02T04:41:41.669Z,92.88
2023-05-02T04:44:11.369Z,93.93
2023-05-02T04:46:40.410Z,93.58
2023-05-02T04:49:12.944Z,93.45
2023-05-02T04:51:39.353Z,91.61
2023-05-02T04:54:09.049Z,90.02
2023-05-02T04:56:38.671Z,90.11
2023-05-02T04:59:12.392Z,89.26
2023-05-02T05:01:41.746Z,90.12
2023-05-02T05:04:09.467Z,89.95
2023-05-02T05:06:36.559Z,89.59
2023-05-02T05:09:06.048Z,89.35
2023-05-02T05:11:40.976Z,89.12
2023-05-02T05:14:07.354Z,87.94
2023-05-02T05:16:33.892Z,86.78
2023-05-02T05:19:01.898Z,87.03
2023-05-02T05:21:31.054Z,85.81
2023-05-02T05:23:57.430Z,86.16
2023-05-02T05:26:25.933Z,86.59
2023-05-02T05:28:55.069Z,86.77
2023-05-02T05:31:22.482Z,86.12
2023-05-02T05:33:52.046Z,85.57
2023-05-02T05:36:23.425Z,86.21
2023-05-02T05:38:56.014Z,86.27
2023-05-02T05:41:23.197Z,86.53
2023-05-02T05:43:49.544Z,86.50
2023-05-02T05:46:19.626Z,85.78
2023-05-02T05:48:48.820Z,86.24
2023-05-02T05:51:20.808Z,86.63
2023-05-02T05:53:50.364Z,86.65
2023-05-02T05:56:22.225Z,86.02
2023-05-02T05:58:55.848Z,87.01
2023-05-02T06:04:10.089Z,86.23
2023-05-02T06:06:36.570Z,85.45
2023-05-02T06:09:04.261Z,85.39
2023-05-02T06:11:40.112Z,84.15
2023-05-02T06:14:06.991Z,84.16
2023-05-02T06:16:41.503Z,83.19
2023-05-02T06:19:08.557Z,81.81
2023-05-02T06:21:37.120Z,81.17
2023-05-02T06:24:07.142Z,80.78
2023-05-02T06:26:33.472Z,79.11
2023-05-02T06:29:03.568Z,78.64
2023-05-02T06:31:33.117Z,77.38
2023-05-02T06:34:07.221Z,75.64
2023-05-02T06:36:33.613Z,75.54
2023-05-02T06:39:03.500Z,75.96
2023-05-02T06:41:32.284Z,75.29
2023-05-02T06:43:58.778Z,75.07
2023-05-02T06:46:34.244Z,74.00
2023-05-02T06:49:03.428Z,74.30
2023-05-02T06:51:45.711Z,75.34
2023-05-02T06:54:26.324Z,75.88
2023-05-02T06:56:54.335Z,75.62
2023-05-02T06:59:21.007Z,75.76
2023-05-02T07:01:50.341Z,76.25
2023-05-02T07:04:24.057Z,76.26
2023-05-02T07:06:53.530Z,76.16
2023-05-02T07:09:27.806Z,76.31
2023-05-02T07:11:54.403Z,76.56
2023-05-02T07:14:21.800Z,75.77
2023-05-02T07:16:51.870Z,75.81
2023-05-02T07:19:18.248Z,76.36
2023-05-02T07:21:44.633Z,76.31
2023-05-02T07:24:14.018Z,72.35
2023-05-02T07:26:43.629Z,72.53
2023-05-02T07:29:10.372Z,73.27
2023-05-02T07:31:39.560Z,73.14
2023-05-02T07:34:08.729Z,74.63
2023-05-02T07:36:42.430Z,74.41
2023-05-02T07:39:11.655Z,73.35
2023-05-02T07:41:45.454Z,73.32
2023-05-02T07:44:14.553Z,72.71
2023-05-02T07:46:41.227Z,72.17
2023-05-02T07:49:11.213Z,71.13
2023-05-02T07:51:41.685Z,70.68
2023-05-02T07:54:21.896Z,70.49
2023-05-02T07:56:53.216Z,69.90
2023-05-02T07:59:22.433Z,69.08
2023-05-02T08:01:49.078Z,69.03
2023-05-02T08:04:19.233Z,67.95
2023-05-02T08:06:45.757Z,67.83
2023-05-02T08:09:12.298Z,67.44
2023-05-02T08:11:47.195Z,66.47
2023-05-02T08:14:15.939Z,66.57
2023-05-02T08:16:44.710Z,66.90
2023-05-02T08:19:12.565Z,67.35
2023-05-02T08:21:38.930Z,67.70
2023-05-02T08:24:11.126Z,67.02
2023-05-02T08:26:37.668Z,66.41
2023-05-02T08:29:04.681Z,65.26
2023-05-02T08:31:33.676Z,65.14
2023-05-02T08:34:03.159Z,64.30
2023-05-02T08:36:37.429Z,63.95
2023-05-02T08:39:03.894Z,62.65
2023-05-02T08:41:31.227Z,61.17
2023-05-02T08:44:01.173Z,60.95
2023-05-02T08:46:31.972Z,59.93
2023-05-02T08:49:13.107Z,59.29
2023-05-02T08:54:27.137Z,58.84
2023-05-02T08:56:56.760Z,57.55
2023-05-02T08:59:28.981Z,58.22
2023-05-02T09:02:12.484Z,58.33
2023-05-02T09:04:42.044Z,56.34
2023-05-02T09:07:15.598Z,56.37
2023-05-02T09:09:42.007Z,55.20
2023-05-02T09:12:08.370Z,55.83
2023-05-02T09:14:37.856Z,54.34
2023-05-02T09:17:07.512Z,54.75
2023-05-02T09:19:34.302Z,54.63
2023-05-02T09:22:03.581Z,54.09
2023-05-02T09:24:30.070Z,52.32
2023-05-02T09:27:05.498Z,52.64
2023-05-02T09:29:38.799Z,51.94
2023-05-02T09:32:14.475Z,51.00
2023-05-02T09:34:45.220Z,50.91
2023-05-02T09:37:37.953Z,51.29
2023-05-02T09:40:11.640Z,49.68
2023-05-02T09:42:41.449Z,49.73
2023-05-02T09:45:08.589Z,50.20
2023-05-02T09:47:37.685Z,48.43
2023-05-02T09:50:06.345Z,48.85
2023-05-02T09:52:40.070Z,48.52
2023-05-02T09:55:21.357Z,48.72
2023-05-02T09:57:50.487Z,47.77
2023-05-02T10:00:21.470Z,47.45
2023-05-02T10:02:51.622Z,47.63
2023-05-02T10:05:22.686Z,47.53
2023-05-02T10:07:49.432Z,46.90
2023-05-02T10:10:17.690Z,46.70
2023-05-02T10:12:48.388Z,47.23
2023-05-02T10:15:22.534Z,45.82
2023-05-02T10:17:52.902Z,47.06
2023-05-02T10:20:27.011Z,46.49
2023-05-02T10:23:03.346Z,47.45
2023-05-02T10:25:30.060Z,47.53
2023-05-02T10:27:59.756Z,46.72
2023-05-02T10:30:30.051Z,45.02
2023-05-02T10:33:11.769Z,45.09
2023-05-02T10:35:45.720Z,44.54
2023-05-02T10:38:19.584Z,44.65
2023-05-02T10:40:57.764Z,44.39
2023-05-02T10:43:29.100Z,44.99
2023-05-02T10:45:58.508Z,44.74
2023-05-02T10:48:30.268Z,43.77
2023-05-02T10:51:03.732Z,43.48
2023-05-02T10:53:55.606Z,44.02
2023-05-02T10:56:22.421Z,43.16
2023-05-02T10:58:50.545Z,43.67
2023-05-02T11:01:40.283Z,45.12
2023-05-02T11:04:09.200Z,44.68
2023-05-02T11:06:59.212Z,44.96
2023-05-02T11:09:33.046Z,43.35
2023-05-02T11:14:53.039Z,43.02
2023-05-02T11:17:21.232Z,44.11
2023-05-02T11:19:56.361Z,44.51
2023-05-02T11:22:29.483Z,44.74
2023-05-02T11:24:59.188Z,43.37
2023-05-02T11:27:33.902Z,44.61
2023-05-02T11:33:22.934Z,43.17
2023-05-02T11:35:49.485Z,43.09
2023-05-02T11:38:20.682Z,42.31
2023-05-02T11:40:59.922Z,41.96
2023-05-02T11:43:31.753Z,42.44
2023-05-02T11:46:14.123Z,42.21
2023-05-02T11:48:45.763Z,42.11
2023-05-02T11:51:22.948Z,41.90
2023-05-02T11:53:49.712Z,42.75
2023-05-02T11:56:16.612Z,43.43
2023-05-02T11:58:44.230Z,45.08
2023-05-02T12:01:15.110Z,43.47
2023-05-02T12:03:46.039Z,42.01
2023-05-02T12:06:16.128Z,42.93
2023-05-02T12:08:45.844Z,42.46
2023-05-02T12:11:18.871Z,43.33
2023-05-02T12:13:48.156Z,42.76
2023-05-02T12:16:15.616Z,43.03
2023-05-02T12:18:50.118Z,44.34
2023-05-02T12:21:17.698Z,43.64
2023-05-02T12:23:46.902Z,42.57
2023-05-02T12:26:23.725Z,43.72
2023-05-02T12:29:00.855Z,42.44
2023-05-02T12:31:32.089Z,42.71
2023-05-02T12:34:00.433Z,43.05
2023-05-02T12:36:30.474Z,42.29
2023-05-02T12:39:01.990Z,43.06
2023-05-02T12:41:37.420Z,42.83
2023-05-02T12:44:05.016Z,42.53
2023-05-02T12:46:32.390Z,41.52
2023-05-02T12:49:09.510Z,42.35
2023-05-02T12:54:23.452Z,41.73
2023-05-02T12:56:53.010Z,42.73
2023-05-02T12:59:32.347Z,43.04
2023-05-02T13:02:19.086Z,43.08
2023-05-02T13:07:31.995Z,41.71
2023-05-02T13:09:58.512Z,41.12
2023-05-02T13:12:26.473Z,41.40
2023-05-02T13:14:54.227Z,41.71
2023-05-02T13:17:23.703Z,42.18
2023-05-02T13:20:01.300Z,42.23
2023-05-02T13:22:29.765Z,42.53
2023-05-02T13:24:59.302Z,43.25
2023-05-02T13:27:28.862Z,42.67
2023-05-02T13:29:55.180Z,42.87
2023-05-02T13:32:32.410Z,44.07
2023-05-02T13:34:58.993Z,43.74
2023-05-02T13:37:28.001Z,43.11
2023-05-02T13:39:57.339Z,43.54
2023-05-02T13:42:31.033Z,42.76
2023-05-02T13:45:02.977Z,43.16
2023-05-02T13:47:34.758Z,42.52
2023-05-02T13:50:01.268Z,42.75
2023-05-02T13:52:27.902Z,44.25
2023-05-02T13:55:02.769Z,41.89
2023-05-02T13:57:29.109Z,41.72
2023-05-02T14:00:02.114Z,42.24
2023-05-02T14:02:28.843Z,41.89
2023-05-02T14:04:55.480Z,42.53
2023-05-02T14:07:22.188Z,42.36
2023-05-02T14:09:55.866Z,43.14
2023-05-02T14:12:33.780Z,41.86
2023-05-02T14:15:00.154Z,42.98
2023-05-02T14:17:36.702Z,42.77
2023-05-02T14:20:03.609Z,42.58
2023-05-02T14:22:30.170Z,42.15
2023-05-02T14:24:56.577Z,42.15
2023-05-02T14:27:23.367Z,42.01
2023-05-02T14:29:49.762Z,42.41
2023-05-02T14:32:25.248Z,42.64
2023-05-02T14:34:51.653Z,42.24
2023-05-02T14:37:24.238Z,42.87
2023-05-02T14:39:56.251Z,42.88
2023-05-02T14:42:31.470Z,44.11
2023-05-02T14:44:59.685Z,43.12
2023-05-02T14:47:35.821Z,43.06
2023-05-02T14:50:08.339Z,43.10
2023-05-02T14:52:37.528Z,43.17
2023-05-02T14:55:06.642Z,43.02
2023-05-02T14:57:33.342Z,42.86
2023-05-02T15:00:04.399Z,43.33
2023-05-02T15:02:31.316Z,43.61
2023-05-02T15:05:02.859Z,43.99
2023-05-02T15:07:29.609Z,43.75
2023-05-02T15:09:56.079Z,44.24
2023-05-02T15:12:22.874Z,43.32
2023-05-02T15:14:49.289Z,44.23
2023-05-02T15:17:15.683Z,43.92
2023-05-02T15:19:44.673Z,44.16
2023-05-02T15:22:15.853Z,43.88
2023-05-02T15:24:43.235Z,44.52
2023-05-02T15:27:20.010Z,43.65
2023-05-02T15:29:51.298Z,44.08
2023-05-02T15:32:22.119Z,43.73
2023-05-02T15:34:54.929Z,43.27
2023-05-02T15:37:24.080Z,43.61
2023-05-02T15:39:53.092Z,42.85
2023-05-02T15:42:19.800Z,43.54
2023-05-02T15:44:46.163Z,43.57
2023-05-02T15:47:12.564Z,43.74
2023-05-02T15:49:41.395Z,44.86
2023-05-02T15:52:10.671Z,44.28
2023-05-02T15:54:41.520Z,44.50
2023-05-02T15:57:07.889Z,44.89
2023-05-02T15:59:34.281Z,45.88
2023-05-02T16:02:00.762Z,45.78
2023-05-02T16:04:31.939Z,46.26
2023-05-02T16:06:58.431Z,45.79
2023-05-02T16:09:24.960Z,46.08
2023-05-02T16:14:46.484Z,45.83
2023-05-02T16:17:23.123Z,46.27
2023-05-02T16:19:49.489Z,46.08
2023-05-02T16:22:16.393Z,46.91
2023-05-02T16:24:48.520Z,46.85
2023-05-02T16:27:14.930Z,46.60
2023-05-02T16:29:43.727Z,47.47
2023-05-02T16:32:13.472Z,46.94
2023-05-02T16:34:39.869Z,47.28
2023-05-02T16:37:08.928Z,47.56
2023-05-02T16:39:39.815Z,46.83
2023-05-02T16:42:09.668Z,47.19
2023-05-02T16:44:38.612Z,46.83
2023-05-02T16:47:05.089Z,47.26
2023-05-02T16:52:18.871Z,47.85
2023-05-02T16:54:45.233Z,48.21
2023-05-02T16:57:11.963Z,47.82
2023-05-02T16:59:40.680Z,47.85
2023-05-02T17:02:09.914Z,48.45
2023-05-02T17:04:36.867Z,48.72
2023-05-02T17:07:11.687Z,48.31
2023-05-02T17:09:39.514Z,48.30
2023-05-02T17:12:07.449Z,48.37
2023-05-02T17:14:38.059Z,48.42
2023-05-02T17:17:07.436Z,48.77
2023-05-02T17:19:42.963Z,49.52
2023-05-02T17:24:57.327Z,49.81
2023-05-02T17:27:23.818Z,49.76
2023-05-02T17:29:50.346Z,50.37
2023-05-02T17:32:19.495Z,51.16
2023-05-02T17:34:49.370Z,51.34
2023-05-02T17:37:16.533Z,51.80
2023-05-02T17:39:43.206Z,52.15
2023-05-02T17:42:12.692Z,52.60
2023-05-02T17:44:39.878Z,52.62
2023-05-02T17:47:08.132Z,52.53
2023-05-02T17:49:37.299Z,52.84
2023-05-02T17:52:07.408Z,53.21
2023-05-02T17:54:34.243Z,52.84
2023-05-02T17:57:00.676Z,53.25
2023-05-02T17:59:27.340Z,52.89
2023-05-02T18:01:54.883Z,52.33
2023-05-02T18:04:23.669Z,52.97
2023-05-02T18:06:50.494Z,53.44
2023-05-02T18:09:19.908Z,53.59
2023-05-02T18:11:53.407Z,54.11
2023-05-02T18:17:07.709Z,54.29
2023-05-02T18:19:37.826Z,54.15
2023-05-02T18:22:08.251Z,54.41
2023-05-02T18:24:37.559Z,54.35
2023-05-02T18:27:06.409Z,54.35
2023-05-02T18:29:40.045Z,54.57
2023-05-02T18:32:06.959Z,55.11
2023-05-02T18:34:36.912Z,55.14
2023-05-02T18:37:08.856Z,55.40
2023-05-02T18:39:39.580Z,55.41
2023-05-02T18:42:10.437Z,56.07
2023-05-02T18:44:36.881Z,56.25
2023-05-02T18:47:04.861Z,56.74
2023-05-02T18:49:31.477Z,57.19
2023-05-02T18:51:57.898Z,57.43
2023-05-02T18:54:32.604Z,58.05
2023-05-02T18:56:59.058Z,58.32
2023-05-02T18:59:31.997Z,58.63
2023-05-02T19:01:58.540Z,58.80
2023-05-02T19:04:25.018Z,59.70
2023-05-02T19:06:59.984Z,59.79
2023-05-02T19:09:26.336Z,59.53
2023-05-02T19:14:37.193Z,59.98
2023-05-02T19:17:07.184Z,60.15
2023-05-02T19:19:33.664Z,60.57
2023-05-02T19:22:08.518Z,61.17
2023-05-02T19:24:45.385Z,61.33
2023-05-02T19:27:14.929Z,61.61
2023-05-02T19:29:45.375Z,61.29
2023-05-02T19:32:14.485Z,61.95
2023-05-02T19:34:41.530Z,61.93
2023-05-02T19:37:20.566Z,62.07
2023-05-02T19:39:49.280Z,62.30
2023-05-02T19:42:15.961Z,62.38
2023-05-02T19:44:45.545Z,62.39
2023-05-02T19:47:11.893Z,62.98
2023-05-02T19:49:40.795Z,63.34
2023-05-02T19:52:10.506Z,63.32
2023-05-02T19:57:23.726Z,63.66
2023-05-02T19:59:53.062Z,64.20
2023-05-02T20:02:19.684Z,64.47
2023-05-02T20:04:49.406Z,64.89
2023-05-02T20:07:15.780Z,64.88
2023-05-02T20:09:42.181Z,65.19
2023-05-02T20:12:12.422Z,65.88
2023-05-02T20:14:41.770Z,66.19
2023-05-02T20:17:08.859Z,66.33
2023-05-02T20:19:35.681Z,66.20
2023-05-02T20:22:04.982Z,66.45
2023-05-02T20:24:31.354Z,67.08
2023-05-02T20:27:01.884Z,66.95
2023-05-02T20:29:28.233Z,66.99
2023-05-02T20:31:56.358Z,67.59
2023-05-02T20:34:23.732Z,67.87
2023-05-02T20:36:56.142Z,67.65
2023-05-02T20:39:24.896Z,68.17
2023-05-02T20:41:51.311Z,68.34
2023-05-02T20:44:18.708Z,68.22
2023-05-02T20:46:45.352Z,68.40
2023-05-02T20:49:14.065Z,68.25
2023-05-02T20:51:43.169Z,68.59
2023-05-02T20:54:11.959Z,68.86
2023-05-02T20:56:39.386Z,68.44
2023-05-02T20:59:06.063Z,68.93
2023-05-02T21:01:33.474Z,68.79
2023-05-02T21:04:04.322Z,69.08
2023-05-02T21:06:34.646Z,69.18
2023-05-02T21:09:04.492Z,69.16
2023-05-02T21:11:33.844Z,69.16
2023-05-02T21:14:02.756Z,69.27
2023-05-02T21:16:29.464Z,69.75
2023-05-02T21:18:59.050Z,69.73
2023-05-02T21:21:26.987Z,69.94
2023-05-02T21:24:00.749Z,70.35
2023-05-02T21:26:27.400Z,70.19
2023-05-02T21:28:54.804Z,70.05
2023-05-02T21:31:24.334Z,69.92
2023-05-02T21:33:50.706Z,70.58
2023-05-02T21:36:20.235Z,70.63
2023-05-02T21:38:50.396Z,71.19
2023-05-02T21:41:19.561Z,70.79
2023-05-02T21:43:46.184Z,71.44
2023-05-02T21:46:12.736Z,71.35
2023-05-02T21:48:39.149Z,71.38
2023-05-02T21:51:15.391Z,71.53
2023-05-02T21:53:42.102Z,71.65
2023-05-02T21:56:13.196Z,71.61
2023-05-02T21:58:39.599Z,71.99
2023-05-02T22:01:06.010Z,72.53
2023-05-02T22:03:36.876Z,72.44
2023-05-02T22:06:06.909Z,72.68
2023-05-02T22:08:35.942Z,73.34
2023-05-02T22:11:09.227Z,73.27
2023-05-02T22:16:20.140Z,73.70
2023-05-02T22:18:50.945Z,73.99
2023-05-02T22:21:21.180Z,73.80
2023-05-02T22:23:53.495Z,74.37
2023-05-02T22:26:28.950Z,74.51
2023-05-02T22:28:58.048Z,74.98
2023-05-02T22:31:26.976Z,75.13
2023-05-02T22:33:53.656Z,74.88
2023-05-02T22:36:22.855Z,75.53
2023-05-02T22:38:51.443Z,75.54
2023-05-02T22:41:18.259Z,75.67
2023-05-02T22:43:48.511Z,76.00
2023-05-02T22:49:02.902Z,76.19
2023-05-02T22:51:29.344Z,76.85
2023-05-02T22:53:56.187Z,77.01
2023-05-02T22:56:30.957Z,77.14
2023-05-02T22:58:57.356Z,77.42
2023-05-02T23:01:25.804Z,77.88
2023-05-02T23:03:52.370Z,77.80
2023-05-02T23:06:22.797Z,78.04
2023-05-02T23:09:01.833Z,78.33
2023-05-02T23:11:31.159Z,78.93
2023-05-02T23:13:57.861Z,79.06
2023-05-02T23:16:24.983Z,79.18
2023-05-02T23:18:51.572Z,79.51
2023-05-02T23:21:28.002Z,79.79
2023-05-02T23:23:56.965Z,80.16
2023-05-02T23:26:23.373Z,80.25
2023-05-02T23:28:52.690Z,80.54
2023-05-02T23:34:00.346Z,81.50
2023-05-02T23:36:36.156Z,81.56
2023-05-02T23:39:02.658Z,81.73
2023-05-02T23:41:32.822Z,82.11
2023-05-02T23:43:59.312Z,82.16
2023-05-02T23:46:25.882Z,82.40
2023-05-02T23:48:58.489Z,82.41
2023-05-02T23:51:29.034Z,82.46
2023-05-02T23:53:59.156Z,82.64
2023-05-02T23:56:28.398Z,82.54
2023-05-02T23:59:06.809Z,82.57
